Hartberg, Austria
Current Conditions -  °F | °C
As of 2:50 PM on Tuesday 21 Oct 2014 (Local Time) from LOWG Reporting Station
Broken Clouds Broken Clouds  
Wind Chill: 68°   Ceiling: 12000
Heat Index: 68°   Visibility: 6mi
Dew Point: 55°   Wind: 7mph
Humidity: 64%   Direction: 140°SE
Pressure: 29.8"   Gusts: NA
Location:  46.98°N, 16.12°E
Report Text: LOWG 211350Z 14006KT 100V170 9999 FEW030 FEW050TCU BKN120 20/13 Q1009 TEMPO SHRA
Loading
Personal Weather Stations






























Interactive Weather Map
Tropical Storm Tracking
New forecast layout! Learn more

10-Day Weather Forecast

Advertisements
Track Severe Weather on mobile